メインページ
METAR-TAF:

METAR-TAF

空港 :

関西国際空港, 日本

緯度: 34-25N, 経度: 135-15E, 海抜: 5m

現時点の気象観測

当レポートは31分前の09:30(UTC)に作成
変向風 1kt
気温 16°C
湿度 100%
気圧 1006 hPa
視程: 3000m
高度200ftの雲はほとんどない
高度500ftの雲は散在している
高度1000ftの千切れ雲あり
にわか雨, 靄

METAR: RJBB 240930Z VRB01KT 3000 R24L/P2000N R24R/1900N SHRA BR FEW002 SCT005 BKN010 16/16 Q1006 BECMG 4000 -SHRA BR TEMPO FEW003 BKN008 BKN020

時間: 19:01 (10:01 UTC)

予報

当レポートは4時間56分前の05:05(UTC)に作成
予報は24日の 06時(UTC)から 25日の 12時(UTC)まで有効
の風 5kt
視程: 9000m
高度500ftの雲はほとんどない
高度1000ftの雲は散在している
高度2000ftの千切れ雲あり
弱いにわか雨
24日の 06時(UTC)から 24日の 08時(UTC)まで徐々に
西/南西の風 6kt
24日の 08時(UTC)から 24日の 15時(UTC)まで一時的に
視程: 4000m
高度300ftの雲はほとんどない
高度800ftの千切れ雲あり
高度1500ftの千切れ雲あり
弱いにわか雨, 靄,

TAF: RJBB 240505Z 2406/2512 36005KT 9000 -SHRA FEW005 SCT010 BKN020 BECMG 2406/2408 24006KT TEMPO 2408/2415 4000 -SHRA BR FEW003 BKN008 BKN015

4,000以上の空港の気象観測と天気予報(METAR報とTAF報)

利用可能な観測所は地図上に黄色い丸と赤い丸で示す。

丸の上にカーソルを重ねると観測所名を参照できる。

次にクリックすると気象観測と天気予報を参照できる。

マップの切り替え:黒色「×」印の緑ボタンをクリックして拡大、「-」印の緑ボタンをクリックして縮小、緑色の三角印をクリックして隣りの地図に切り替え


METAR-TAF: